sensor_id;sensor_type;location;lat;lon;timestamp;pressure;altitude;pressure_sealevel;temperature;humidity
72685;BME280;61365;52.162;4.500;2024-01-30T00:02:12;102525.84;;;8.78;100.00
72685;BME280;61365;52.162;4.500;2024-01-30T00:04:38;102519.03;;;8.81;100.00
72685;BME280;61365;52.162;4.500;2024-01-30T00:07:04;102516.53;;;8.86;100.00
72685;BME280;61365;52.162;4.500;2024-01-30T00:09:30;102514.88;;;8.88;100.00
72685;BME280;61365;52.162;4.500;2024-01-30T00:11:56;102531.56;;;8.92;100.00
72685;BME280;61365;52.162;4.500;2024-01-30T00:14:23;102531.81;;;8.99;100.00
72685;BME280;61365;52.162;4.500;2024-01-30T00:16:49;102528.41;;;9.02;100.00
72685;BME280;61365;52.162;4.500;2024-01-30T00:19:16;102521.44;;;9.02;100.00
72685;BME280;61365;52.162;4.500;2024-01-30T00:21:43;102519.63;;;9.00;100.00
72685;BME280;61365;52.162;4.500;2024-01-30T00:24:09;102515.31;;;9.02;100.00
72685;BME280;61365;52.162;4.500;2024-01-30T00:26:35;102517.09;;;9.03;100.00
72685;BME280;61365;52.162;4.500;2024-01-30T00:29:02;102505.88;;;9.07;100.00
72685;BME280;61365;52.162;4.500;2024-01-30T00:31:28;102516.25;;;9.04;100.00
72685;BME280;61365;52.162;4.500;2024-01-30T00:33:55;102512.88;;;9.08;100.00
72685;BME280;61365;52.162;4.500;2024-01-30T00:36:21;102503.34;;;9.10;100.00
72685;BME280;61365;52.162;4.500;2024-01-30T00:38:48;102505.88;;;9.07;100.00
72685;BME280;61365;52.162;4.500;2024-01-30T00:41:17;102512.34;;;9.19;100.00
72685;BME280;61365;52.162;4.500;2024-01-30T00:43:43;102515.94;;;9.22;100.00
72685;BME280;61365;52.162;4.500;2024-01-30T00:46:09;102526.59;;;9.27;100.00
72685;BME280;61365;52.162;4.500;2024-01-30T00:48:35;102517.97;;;9.31;100.00
72685;BME280;61365;52.162;4.500;2024-01-30T00:51:01;102516.31;;;9.33;100.00
72685;BME280;61365;52.162;4.500;2024-01-30T00:53:27;102509.03;;;9.24;100.00
72685;BME280;61365;52.162;4.500;2024-01-30T00:55:54;102505.28;;;9.16;100.00
72685;BME280;61365;52.162;4.500;2024-01-30T00:58:20;102521.19;;;9.22;100.00
72685;BME280;61365;52.162;4.500;2024-01-30T01:00:46;102522.22;;;9.27;100.00
72685;BME280;61365;52.162;4.500;2024-01-30T01:03:12;102511.84;;;9.30;100.00
72685;BME280;61365;52.162;4.500;2024-01-30T01:05:39;102515.28;;;9.29;100.00
72685;BME280;61365;52.162;4.500;2024-01-30T01:08:05;102513.53;;;9.28;100.00
72685;BME280;61365;52.162;4.500;2024-01-30T01:10:32;102505.56;;;9.25;100.00
72685;BME280;61365;52.162;4.500;2024-01-30T01:12:58;102507.31;;;9.25;100.00
72685;BME280;61365;52.162;4.500;2024-01-30T01:15:24;102506.47;;;9.26;100.00
72685;BME280;61365;52.162;4.500;2024-01-30T01:17:50;102511.94;;;9.34;100.00
72685;BME280;61365;52.162;4.500;2024-01-30T01:20:16;102501.47;;;9.34;100.00
72685;BME280;61365;52.162;4.500;2024-01-30T01:22:42;102490.09;;;9.33;100.00
72685;BME280;61365;52.162;4.500;2024-01-30T01:25:08;102488.22;;;9.29;100.00
72685;BME280;61365;52.162;4.500;2024-01-30T01:27:36;102490.13;;;9.35;100.00
72685;BME280;61365;52.162;4.500;2024-01-30T01:30:07;102485.72;;;9.32;100.00
72685;BME280;61365;52.162;4.500;2024-01-30T01:32:35;102474.53;;;9.10;100.00
72685;BME280;61365;52.162;4.500;2024-01-30T01:35:02;102468.66;;;9.18;100.00
72685;BME280;61365;52.162;4.500;2024-01-30T01:37:31;102468.56;;;9.14;100.00
72685;BME280;61365;52.162;4.500;2024-01-30T01:39:57;102475.03;;;9.26;100.00
72685;BME280;61365;52.162;4.500;2024-01-30T01:42:23;102465.09;;;9.15;100.00
72685;BME280;61365;52.162;4.500;2024-01-30T01:44:49;102475.66;;;9.19;100.00
72685;BME280;61365;52.162;4.500;2024-01-30T01:47:15;102477.25;;;9.13;100.00
72685;BME280;61365;52.162;4.500;2024-01-30T01:49:41;102477.44;;;9.20;100.00
72685;BME280;61365;52.162;4.500;2024-01-30T01:52:08;102477.41;;;9.18;100.00
72685;BME280;61365;52.162;4.500;2024-01-30T01:54:35;102482.59;;;9.16;100.00
72685;BME280;61365;52.162;4.500;2024-01-30T01:57:02;102479.94;;;9.15;100.00
72685;BME280;61365;52.162;4.500;2024-01-30T01:59:29;102469.88;;;9.00;100.00
72685;BME280;61365;52.162;4.500;2024-01-30T02:01:56;102470.91;;;9.05;100.00
72685;BME280;61365;52.162;4.500;2024-01-30T02:04:22;102478.75;;;9.05;100.00
72685;BME280;61365;52.162;4.500;2024-01-30T02:06:48;102490.19;;;9.07;100.00
72685;BME280;61365;52.162;4.500;2024-01-30T02:09:15;102487.56;;;9.07;100.00
72685;BME280;61365;52.162;4.500;2024-01-30T02:11:41;102484.03;;;9.07;100.00
72685;BME280;61365;52.162;4.500;2024-01-30T02:14:08;102477.34;;;9.16;100.00
72685;BME280;61365;52.162;4.500;2024-01-30T02:16:34;102471.19;;;9.14;100.00
72685;BME280;61365;52.162;4.500;2024-01-30T02:19:00;102472.72;;;9.08;100.00
72685;BME280;61365;52.162;4.500;2024-01-30T02:21:26;102467.69;;;9.14;100.00
72685;BME280;61365;52.162;4.500;2024-01-30T02:23:52;102463.22;;;9.11;100.00
72685;BME280;61365;52.162;4.500;2024-01-30T02:26:20;102464.84;;;9.06;100.00
72685;BME280;61365;52.162;4.500;2024-01-30T02:28:47;102474.47;;;9.07;100.00
72685;BME280;61365;52.162;4.500;2024-01-30T02:31:13;102474.59;;;9.12;100.00
72685;BME280;61365;52.162;4.500;2024-01-30T02:33:39;102463.31;;;9.14;100.00
72685;BME280;61365;52.162;4.500;2024-01-30T02:36:05;102463.31;;;9.14;100.00
72685;BME280;61365;52.162;4.500;2024-01-30T02:38:31;102466.13;;;9.21;100.00
72685;BME280;61365;52.162;4.500;2024-01-30T02:40:57;102466.13;;;9.21;100.00
72685;BME280;61365;52.162;4.500;2024-01-30T02:43:23;102459.09;;;9.18;100.00
72685;BME280;61365;52.162;4.500;2024-01-30T02:45:49;102457.41;;;9.20;100.00
72685;BME280;61365;52.162;4.500;2024-01-30T02:48:15;102439.75;;;9.14;100.00
72685;BME280;61365;52.162;4.500;2024-01-30T02:50:41;102433.31;;;9.03;100.00
72685;BME280;61365;52.162;4.500;2024-01-30T02:53:08;102431.47;;;9.00;100.00
72685;BME280;61365;52.162;4.500;2024-01-30T02:55:34;102437.41;;;8.95;100.00
72685;BME280;61365;52.162;4.500;2024-01-30T02:58:00;102442.09;;;9.05;100.00
72685;BME280;61365;52.162;4.500;2024-01-30T03:00:26;102422.59;;;8.95;100.00
72685;BME280;61365;52.162;4.500;2024-01-30T03:02:52;102427.75;;;8.92;100.00
72685;BME280;61365;52.162;4.500;2024-01-30T03:05:19;102439.31;;;9.00;100.00
72685;BME280;61365;52.162;4.500;2024-01-30T03:07:45;102434.19;;;9.04;100.00
72685;BME280;61365;52.162;4.500;2024-01-30T03:10:11;102428.00;;;9.01;100.00
72685;BME280;61365;52.162;4.500;2024-01-30T03:12:37;102427.84;;;8.95;100.00
72685;BME280;61365;52.162;4.500;2024-01-30T03:15:03;102430.53;;;8.98;100.00
72685;BME280;61365;52.162;4.500;2024-01-30T03:17:29;102430.44;;;8.95;100.00
72685;BME280;61365;52.162;4.500;2024-01-30T03:19:55;102437.09;;;8.85;100.00
72685;BME280;61365;52.162;4.500;2024-01-30T03:22:22;102438.78;;;8.83;100.00
72685;BME280;61365;52.162;4.500;2024-01-30T03:24:48;102436.31;;;8.88;100.00
72685;BME280;61365;52.162;4.500;2024-01-30T03:27:14;102437.31;;;8.92;100.00
72685;BME280;61365;52.162;4.500;2024-01-30T03:29:40;102433.06;;;8.95;100.00
72685;BME280;61365;52.162;4.500;2024-01-30T03:32:06;102437.41;;;8.95;100.00
72685;BME280;61365;52.162;4.500;2024-01-30T03:34:32;102428.69;;;8.94;100.00
72685;BME280;61365;52.162;4.500;2024-01-30T03:36:58;102430.63;;;9.01;100.00
72685;BME280;61365;52.162;4.500;2024-01-30T03:39:24;102431.31;;;8.96;100.00
72685;BME280;61365;52.162;4.500;2024-01-30T03:41:50;102435.09;;;9.04;100.00
72685;BME280;61365;52.162;4.500;2024-01-30T03:44:16;102423.81;;;9.07;100.00
72685;BME280;61365;52.162;4.500;2024-01-30T03:46:42;102425.47;;;9.05;100.00
72685;BME280;61365;52.162;4.500;2024-01-30T03:49:09;102416.69;;;9.02;100.00
72685;BME280;61365;52.162;4.500;2024-01-30T03:51:35;102415.66;;;8.97;100.00
72685;BME280;61365;52.162;4.500;2024-01-30T03:54:01;102413.63;;;8.89;100.00
72685;BME280;61365;52.162;4.500;2024-01-30T03:56:27;102414.47;;;8.88;100.00
72685;BME280;61365;52.162;4.500;2024-01-30T03:58:54;102422.53;;;8.94;100.00
72685;BME280;61365;52.162;4.500;2024-01-30T04:01:21;102422.94;;;9.06;100.00
72685;BME280;61365;52.162;4.500;2024-01-30T04:03:47;102421.06;;;9.02;100.00
72685;BME280;61365;52.162;4.500;2024-01-30T04:06:13;102407.22;;;9.06;100.00
72685;BME280;61365;52.162;4.500;2024-01-30T04:08:39;102418.28;;;8.97;100.00
72685;BME280;61365;52.162;4.500;2024-01-30T04:11:05;102423.78;;;9.05;100.00
72685;BME280;61365;52.162;4.500;2024-01-30T04:13:32;102419.97;;;8.95;100.00
72685;BME280;61365;52.162;4.500;2024-01-30T04:15:59;102422.03;;;9.06;100.00
72685;BME280;61365;52.162;4.500;2024-01-30T04:18:27;102420.38;;;9.09;100.00
72685;BME280;61365;52.162;4.500;2024-01-30T04:20:53;102415.34;;;9.15;100.00
72685;BME280;61365;52.162;4.500;2024-01-30T04:23:20;102411.00;;;9.16;100.00
72685;BME280;61365;52.162;4.500;2024-01-30T04:25:46;102408.19;;;9.10;100.00
72685;BME280;61365;52.162;4.500;2024-01-30T04:28:12;102409.25;;;9.16;100.00
72685;BME280;61365;52.162;4.500;2024-01-30T04:30:38;102404.91;;;9.17;100.00
72685;BME280;61365;52.162;4.500;2024-01-30T04:33:05;102397.94;;;9.18;100.00
72685;BME280;61365;52.162;4.500;2024-01-30T04:35:31;102388.41;;;9.20;100.00
72685;BME280;61365;52.162;4.500;2024-01-30T04:37:58;102390.78;;;9.12;100.00
72685;BME280;61365;52.162;4.500;2024-01-30T04:40:24;102389.31;;;9.20;100.00
72685;BME280;61365;52.162;4.500;2024-01-30T04:42:50;102393.72;;;9.23;100.00
72685;BME280;61365;52.162;4.500;2024-01-30T04:45:16;102389.38;;;9.23;100.00
72685;BME280;61365;52.162;4.500;2024-01-30T04:47:42;102386.94;;;9.29;100.00
72685;BME280;61365;52.162;4.500;2024-01-30T04:50:08;102380.75;;;9.27;100.00
72685;BME280;61365;52.162;4.500;2024-01-30T04:52:35;102380.19;;;9.38;100.00
72685;BME280;61365;52.162;4.500;2024-01-30T04:55:01;102379.13;;;9.31;100.00
72685;BME280;61365;52.162;4.500;2024-01-30T04:57:28;102379.38;;;9.40;100.00
72685;BME280;61365;52.162;4.500;2024-01-30T04:59:54;102377.59;;;9.39;100.00
72685;BME280;61365;52.162;4.500;2024-01-30T05:02:20;102374.34;;;9.48;100.00
72685;BME280;61365;52.162;4.500;2024-01-30T05:04:46;102397.09;;;9.49;100.00
72685;BME280;61365;52.162;4.500;2024-01-30T05:07:12;102388.47;;;9.53;100.00
72685;BME280;61365;52.162;4.500;2024-01-30T05:09:38;102391.00;;;9.50;100.00
72685;BME280;61365;52.162;4.500;2024-01-30T05:12:04;102384.91;;;9.50;100.00
72685;BME280;61365;52.162;4.500;2024-01-30T05:14:30;102391.84;;;9.49;100.00
72685;BME280;61365;52.162;4.500;2024-01-30T05:16:56;102395.38;;;9.50;100.00
72685;BME280;61365;52.162;4.500;2024-01-30T05:19:22;102393.00;;;9.59;100.00
72685;BME280;61365;52.162;4.500;2024-01-30T05:21:49;102390.47;;;9.62;100.00
72685;BME280;61365;52.162;4.500;2024-01-30T05:24:15;102390.47;;;9.62;100.00
72685;BME280;61365;52.162;4.500;2024-01-30T05:26:42;102388.03;;;9.68;100.00
72685;BME280;61365;52.162;4.500;2024-01-30T05:29:08;102385.50;;;9.71;100.00
72685;BME280;61365;52.162;4.500;2024-01-30T05:31:34;102393.25;;;9.68;100.00
72685;BME280;61365;52.162;4.500;2024-01-30T05:34:00;102386.31;;;9.69;100.00
72685;BME280;61365;52.162;4.500;2024-01-30T05:36:27;102387.19;;;9.69;100.00
72685;BME280;61365;52.162;4.500;2024-01-30T05:38:53;102385.38;;;9.67;100.00
72685;BME280;61365;52.162;4.500;2024-01-30T05:41:19;102389.81;;;9.69;100.00
72685;BME280;61365;52.162;4.500;2024-01-30T05:43:46;102376.69;;;9.69;100.00
72685;BME280;61365;52.162;4.500;2024-01-30T05:46:12;102383.59;;;9.66;100.00
72685;BME280;61365;52.162;4.500;2024-01-30T05:48:39;102379.00;;;9.57;100.00
72685;BME280;61365;52.162;4.500;2024-01-30T05:51:05;102386.84;;;9.57;100.00
72685;BME280;61365;52.162;4.500;2024-01-30T05:53:33;102391.09;;;9.53;100.00
72685;BME280;61365;52.162;4.500;2024-01-30T05:56:01;102385.84;;;9.53;100.00
72685;BME280;61365;52.162;4.500;2024-01-30T05:58:27;102391.00;;;9.50;100.00
72685;BME280;61365;52.162;4.500;2024-01-30T06:00:53;102392.84;;;9.53;100.00
72685;BME280;61365;52.162;4.500;2024-01-30T06:03:20;102400.44;;;9.43;100.00
72685;BME280;61365;52.162;4.500;2024-01-30T06:05:46;102395.94;;;9.39;100.00
72685;BME280;61365;52.162;4.500;2024-01-30T06:08:12;102404.09;;;9.49;100.00
72685;BME280;61365;52.162;4.500;2024-01-30T06:10:39;102392.38;;;9.37;100.00
72685;BME280;61365;52.162;4.500;2024-01-30T06:13:06;102401.19;;;9.39;100.00
72685;BME280;61365;52.162;4.500;2024-01-30T06:15:34;102399.47;;;9.40;100.00
72685;BME280;61365;52.162;4.500;2024-01-30T06:18:01;102399.50;;;9.41;100.00
72685;BME280;61365;52.162;4.500;2024-01-30T06:20:27;102406.41;;;9.39;100.00
72685;BME280;61365;52.162;4.500;2024-01-30T06:22:53;102399.50;;;9.41;100.00
72685;BME280;61365;52.162;4.500;2024-01-30T06:25:19;102402.25;;;9.46;100.00
72685;BME280;61365;52.162;4.500;2024-01-30T06:27:45;102391.00;;;9.50;100.00
72685;BME280;61365;52.162;4.500;2024-01-30T06:30:11;102403.25;;;9.50;100.00
72685;BME280;61365;52.162;4.500;2024-01-30T06:32:38;102392.75;;;9.50;100.00
72685;BME280;61365;52.162;4.500;2024-01-30T06:35:05;102394.63;;;9.54;100.00
72685;BME280;61365;52.162;4.500;2024-01-30T06:37:31;102398.94;;;9.52;100.00
72685;BME280;61365;52.162;4.500;2024-01-30T06:39:57;102402.44;;;9.52;100.00
72685;BME280;61365;52.162;4.500;2024-01-30T06:42:23;102398.09;;;9.53;100.00
72685;BME280;61365;52.162;4.500;2024-01-30T06:44:49;102403.56;;;9.62;100.00
72685;BME280;61365;52.162;4.500;2024-01-30T06:47:16;102401.84;;;9.63;100.00
72685;BME280;61365;52.162;4.500;2024-01-30T06:49:42;102395.84;;;9.67;100.00
72685;BME280;61365;52.162;4.500;2024-01-30T06:52:09;102395.78;;;9.65;100.00
72685;BME280;61365;52.162;4.500;2024-01-30T06:54:35;102405.53;;;9.69;100.00
72685;BME280;61365;52.162;4.500;2024-01-30T06:57:02;102403.84;;;9.71;100.00
72685;BME280;61365;52.162;4.500;2024-01-30T06:59:28;102406.50;;;9.73;100.00
72685;BME280;61365;52.162;4.500;2024-01-30T07:01:54;102401.25;;;9.73;100.00
72685;BME280;61365;52.162;4.500;2024-01-30T07:04:21;102399.00;;;9.87;100.00
72685;BME280;61365;52.162;4.500;2024-01-30T07:06:47;102411.28;;;9.88;100.00
72685;BME280;61365;52.162;4.500;2024-01-30T07:09:13;102407.81;;;9.89;100.00
72685;BME280;61365;52.162;4.500;2024-01-30T07:11:39;102401.53;;;9.84;100.00
72685;BME280;61365;52.162;4.500;2024-01-30T07:14:05;102413.13;;;9.92;100.00
72685;BME280;61365;52.162;4.500;2024-01-30T07:16:31;102421.06;;;9.94;100.00
72685;BME280;61365;52.162;4.500;2024-01-30T07:18:59;102414.53;;;10.13;100.00
72685;BME280;61365;52.162;4.500;2024-01-30T07:21:25;102428.41;;;10.07;100.00
72685;BME280;61365;52.162;4.500;2024-01-30T07:23:54;102419.03;;;10.17;100.00
72685;BME280;61365;52.162;4.500;2024-01-30T07:26:21;102422.41;;;10.13;100.00
72685;BME280;61365;52.162;4.500;2024-01-30T07:28:47;102431.22;;;10.15;100.00
72685;BME280;61365;52.162;4.500;2024-01-30T07:31:13;102434.09;;;10.24;100.00
72685;BME280;61365;52.162;4.500;2024-01-30T07:33:39;102428.03;;;10.27;100.00
72685;BME280;61365;52.162;4.500;2024-01-30T07:36:06;102441.22;;;10.30;100.00
72685;BME280;61365;52.162;4.500;2024-01-30T07:38:32;102436.97;;;10.33;100.00
72685;BME280;61365;52.162;4.500;2024-01-30T07:40:58;102438.91;;;10.41;100.00
72685;BME280;61365;52.162;4.500;2024-01-30T07:43:24;102447.03;;;10.50;100.00
72685;BME280;61365;52.162;4.500;2024-01-30T07:45:50;102440.19;;;10.57;100.00
72685;BME280;61365;52.162;4.500;2024-01-30T07:48:16;102441.94;;;10.56;100.00
72685;BME280;61365;52.162;4.500;2024-01-30T07:50:43;102443.00;;;10.64;100.00
72685;BME280;61365;52.162;4.500;2024-01-30T07:53:09;102440.44;;;10.66;100.00
72685;BME280;61365;52.162;4.500;2024-01-30T07:55:35;102444.66;;;10.59;100.00
72685;BME280;61365;52.162;4.500;2024-01-30T07:58:01;102451.72;;;10.63;100.00
72685;BME280;61365;52.162;4.500;2024-01-30T08:00:27;102439.69;;;10.73;100.00
72685;BME280;61365;52.162;4.500;2024-01-30T08:02:54;102456.09;;;10.63;100.00
72685;BME280;61365;52.162;4.500;2024-01-30T08:05:21;102454.56;;;10.73;100.00
72685;BME280;61365;52.162;4.500;2024-01-30T08:07:48;102452.06;;;10.77;100.00
72685;BME280;61365;52.162;4.500;2024-01-30T08:10:15;102474.50;;;10.64;100.00
72685;BME280;61365;52.162;4.500;2024-01-30T08:12:41;102472.06;;;10.72;100.00
72685;BME280;61365;52.162;4.500;2024-01-30T08:15:07;102473.72;;;10.69;100.00
72685;BME280;61365;52.162;4.500;2024-01-30T08:17:34;102471.34;;;10.78;100.00
72685;BME280;61365;52.162;4.500;2024-01-30T08:20:00;102465.25;;;10.79;100.00
72685;BME280;61365;52.162;4.500;2024-01-30T08:22:26;102470.34;;;10.74;100.00
72685;BME280;61365;52.162;4.500;2024-01-30T08:24:52;102472.97;;;10.74;100.00
72685;BME280;61365;52.162;4.500;2024-01-30T08:27:18;102475.47;;;10.68;100.00
72685;BME280;61365;52.162;4.500;2024-01-30T08:29:44;102472.72;;;10.63;100.00
72685;BME280;61365;52.162;4.500;2024-01-30T08:32:11;102480.72;;;10.68;100.00
72685;BME280;61365;52.162;4.500;2024-01-30T08:34:37;102467.88;;;10.79;100.00
72685;BME280;61365;52.162;4.500;2024-01-30T08:37:03;102475.06;;;10.88;100.00
72685;BME280;61365;52.162;4.500;2024-01-30T08:39:29;102467.97;;;10.84;100.00
72685;BME280;61365;52.162;4.500;2024-01-30T08:41:56;102475.47;;;10.68;100.00
72685;BME280;61365;52.162;4.500;2024-01-30T08:44:22;102476.59;;;10.78;100.00
72685;BME280;61365;52.162;4.500;2024-01-30T08:46:48;102475.94;;;10.87;100.00
72685;BME280;61365;52.162;4.500;2024-01-30T08:49:19;102477.53;;;10.81;100.00
72685;BME280;61365;52.162;4.500;2024-01-30T08:51:45;102483.56;;;10.77;100.00
72685;BME280;61365;52.162;4.500;2024-01-30T08:54:15;102479.94;;;10.72;100.00
72685;BME280;61365;52.162;4.500;2024-01-30T08:56:41;102484.41;;;10.76;100.00
72685;BME280;61365;52.162;4.500;2024-01-30T08:59:07;102480.25;;;10.85;100.00
72685;BME280;61365;52.162;4.500;2024-01-30T09:01:33;102473.47;;;10.94;100.00
72685;BME280;61365;52.162;4.500;2024-01-30T09:03:59;102491.75;;;10.90;100.00
72685;BME280;61365;52.162;4.500;2024-01-30T09:06:25;102491.75;;;10.90;100.00
72685;BME280;61365;52.162;4.500;2024-01-30T09:08:53;102480.31;;;10.88;100.00
72685;BME280;61365;52.162;4.500;2024-01-30T09:11:19;102482.59;;;11.09;100.00
72685;BME280;61365;52.162;4.500;2024-01-30T09:13:45;102486.94;;;11.08;100.00
72685;BME280;61365;52.162;4.500;2024-01-30T09:16:12;102490.75;;;11.23;100.00
72685;BME280;61365;52.162;4.500;2024-01-30T09:18:38;102497.34;;;11.04;100.00
72685;BME280;61365;52.162;4.500;2024-01-30T09:21:04;102493.47;;;10.88;100.00
72685;BME280;61365;52.162;4.500;2024-01-30T09:23:31;102505.75;;;10.89;100.00
72685;BME280;61365;52.162;4.500;2024-01-30T09:25:57;102513.81;;;10.96;100.00
72685;BME280;61365;52.162;4.500;2024-01-30T09:28:23;102516.59;;;11.03;100.00
72685;BME280;61365;52.162;4.500;2024-01-30T09:30:49;102528.78;;;11.01;100.00
72685;BME280;61365;52.162;4.500;2024-01-30T09:33:15;102525.94;;;10.91;100.00
72685;BME280;61365;52.162;4.500;2024-01-30T09:35:41;102533.63;;;10.84;100.00
72685;BME280;61365;52.162;4.500;2024-01-30T09:38:08;102523.00;;;10.79;100.00
72685;BME280;61365;52.162;4.500;2024-01-30T09:40:34;102519.91;;;10.95;100.00
72685;BME280;61365;52.162;4.500;2024-01-30T09:43:00;102524.91;;;10.85;100.00
72685;BME280;61365;52.162;4.500;2024-01-30T09:45:26;102560.47;;;10.73;100.00
72685;BME280;61365;52.162;4.500;2024-01-30T09:47:52;102558.44;;;10.95;100.00
72685;BME280;61365;52.162;4.500;2024-01-30T09:50:19;102547.69;;;10.86;100.00
72685;BME280;61365;52.162;4.500;2024-01-30T09:52:46;102542.84;;;10.68;100.00
72685;BME280;61365;52.162;4.500;2024-01-30T09:55:13;102551.81;;;10.76;100.00
72685;BME280;61365;52.162;4.500;2024-01-30T09:57:39;102549.72;;;10.96;100.00
72685;BME280;61365;52.162;4.500;2024-01-30T10:00:07;102546.75;;;10.84;100.00
72685;BME280;61365;52.162;4.500;2024-01-30T10:02:34;102539.28;;;10.65;100.00
72685;BME280;61365;52.162;4.500;2024-01-30T10:05:01;102549.00;;;10.68;100.00
72685;BME280;61365;52.162;4.500;2024-01-30T10:07:27;102543.28;;;10.51;100.00
72685;BME280;61365;52.162;4.500;2024-01-30T10:09:54;102549.84;;;10.67;100.00
72685;BME280;61365;52.162;4.500;2024-01-30T10:12:22;102537.97;;;10.49;100.00
72685;BME280;61365;52.162;4.500;2024-01-30T10:14:49;102559.91;;;10.50;100.00
72685;BME280;61365;52.162;4.500;2024-01-30T10:17:15;102534.69;;;10.57;100.00
72685;BME280;61365;52.162;4.500;2024-01-30T10:19:41;102552.13;;;10.55;100.00
72685;BME280;61365;52.162;4.500;2024-01-30T10:22:08;102554.44;;;10.76;100.00
72685;BME280;61365;52.162;4.500;2024-01-30T10:24:35;102544.50;;;10.64;100.00
72685;BME280;61365;52.162;4.500;2024-01-30T10:27:02;102555.38;;;10.44;100.00
72685;BME280;61365;52.162;4.500;2024-01-30T10:29:28;102560.53;;;10.41;100.00
72685;BME280;61365;52.162;4.500;2024-01-30T10:31:58;102566.56;;;10.39;100.00
72685;BME280;61365;52.162;4.500;2024-01-30T10:34:24;102553.13;;;10.28;100.00
72685;BME280;61365;52.162;4.500;2024-01-30T10:36:50;102571.66;;;10.34;100.00
72685;BME280;61365;52.162;4.500;2024-01-30T10:39:43;102561.91;;;10.94;100.00
72685;BME280;61365;52.162;4.500;2024-01-30T10:42:12;102553.59;;;10.77;100.00
72685;BME280;61365;52.162;4.500;2024-01-30T10:47:35;102569.16;;;11.04;100.00
72685;BME280;61365;52.162;4.500;2024-01-30T10:50:02;102569.81;;;10.95;100.00
72685;BME280;61365;52.162;4.500;2024-01-30T10:52:29;102568.91;;;11.30;100.00
72685;BME280;61365;52.162;4.500;2024-01-30T10:54:57;102573.41;;;11.36;100.00
72685;BME280;61365;52.162;4.500;2024-01-30T10:57:25;102565.75;;;11.08;100.00
72685;BME280;61365;52.162;4.500;2024-01-30T10:59:56;102565.84;;;11.11;100.00
72685;BME280;61365;52.162;4.500;2024-01-30T11:02:24;102566.56;;;11.06;100.00
72685;BME280;61365;52.162;4.500;2024-01-30T11:04:58;102581.44;;;11.05;100.00
72685;BME280;61365;52.162;4.500;2024-01-30T11:07:26;102587.06;;;10.86;100.00
72685;BME280;61365;52.162;4.500;2024-01-30T11:09:59;102587.19;;;10.90;100.00
72685;BME280;61365;52.162;4.500;2024-01-30T11:12:30;102585.78;;;10.70;100.00
72685;BME280;61365;52.162;4.500;2024-01-30T11:15:08;102575.81;;;11.26;100.00
72685;BME280;61365;52.162;4.500;2024-01-30T11:17:49;102578.78;;;11.04;100.00
72685;BME280;61365;52.162;4.500;2024-01-30T11:20:25;102575.72;;;11.22;100.00
72685;BME280;61365;52.162;4.500;2024-01-30T11:22:53;102577.44;;;10.86;100.00
72685;BME280;61365;52.162;4.500;2024-01-30T11:25:22;102582.78;;;10.89;100.00
72685;BME280;61365;52.162;4.500;2024-01-30T11:27:49;102577.31;;;10.80;100.00
72685;BME280;61365;52.162;4.500;2024-01-30T11:30:32;102576.59;;;10.87;100.00
72685;BME280;61365;52.162;4.500;2024-01-30T11:35:24;102575.22;;;11.02;100.00
72685;BME280;61365;52.162;4.500;2024-01-30T11:37:51;102581.53;;;10.75;100.00
72685;BME280;61365;52.162;4.500;2024-01-30T11:40:17;102585.47;;;10.57;100.00
72685;BME280;61365;52.162;4.500;2024-01-30T11:42:44;102583.06;;;10.66;100.00
72685;BME280;61365;52.162;4.500;2024-01-30T11:45:12;102582.13;;;10.64;100.00
72685;BME280;61365;52.162;4.500;2024-01-30T11:47:38;102588.78;;;10.51;100.00
72685;BME280;61365;52.162;4.500;2024-01-30T11:50:05;102586.31;;;10.56;100.00
72685;BME280;61365;52.162;4.500;2024-01-30T11:52:35;102595.16;;;10.60;100.00
72685;BME280;61365;52.162;4.500;2024-01-30T11:55:04;102595.56;;;10.75;100.00
72685;BME280;61365;52.162;4.500;2024-01-30T11:57:31;102592.63;;;10.63;100.00
72685;BME280;61365;52.162;4.500;2024-01-30T11:59:57;102604.91;;;10.64;100.00
72685;BME280;61365;52.162;4.500;2024-01-30T12:02:24;102593.00;;;10.14;100.00
72685;BME280;61365;52.162;4.500;2024-01-30T12:04:50;102617.94;;;10.30;100.00
72685;BME280;61365;52.162;4.500;2024-01-30T12:07:16;102612.09;;;10.39;100.00
72685;BME280;61365;52.162;4.500;2024-01-30T12:09:51;102618.50;;;10.20;100.00
72685;BME280;61365;52.162;4.500;2024-01-30T12:12:18;102627.84;;;10.39;100.00
72685;BME280;61365;52.162;4.500;2024-01-30T12:14:44;102618.50;;;10.50;100.00
72685;BME280;61365;52.162;4.500;2024-01-30T12:17:11;102613.63;;;10.32;100.00
72685;BME280;61365;52.162;4.500;2024-01-30T12:19:38;102617.44;;;10.42;100.00
72685;BME280;61365;52.162;4.500;2024-01-30T12:22:04;102616.94;;;10.27;100.00
72685;BME280;61365;52.162;4.500;2024-01-30T12:24:30;102624.38;;;10.40;100.00
72685;BME280;61365;52.162;4.500;2024-01-30T12:26:57;102618.59;;;10.54;100.00
72685;BME280;61365;52.162;4.500;2024-01-30T12:29:25;102628.59;;;10.67;100.00
72685;BME280;61365;52.162;4.500;2024-01-30T12:31:54;102616.72;;;10.49;100.00
72685;BME280;61365;52.162;4.500;2024-01-30T12:34:20;102623.84;;;10.23;100.00
72685;BME280;61365;52.162;4.500;2024-01-30T12:36:47;102632.66;;;10.25;100.00
72685;BME280;61365;52.162;4.500;2024-01-30T12:39:14;102631.06;;;10.30;100.00
72685;BME280;61365;52.162;4.500;2024-01-30T12:41:40;102640.34;;;10.19;100.00
72685;BME280;61365;52.162;4.500;2024-01-30T12:44:07;102648.00;;;10.40;100.00
72685;BME280;61365;52.162;4.500;2024-01-30T12:46:34;102638.38;;;10.41;100.00
72685;BME280;61365;52.162;4.500;2024-01-30T12:49:00;102637.72;;;10.49;100.00